Aviation Digital Data Service (ADDS)

Output produced by METARs form (0036 UTC 23 March 2019)
found at http://www.aviationweather.gov/metar/data/
 
METAR text: PHTO 222353Z 07011G16KT 10SM FEW031 26/17 A3008 RMK AO2 SLP183 T02610172 10261 20194 58020
Conditions at: PHTO (HILO , HI, US) observed 2353 UTC 22 March 2019
Temperature: 26.1°C (79°F)
Dewpoint: 17.2°C (63°F) [RH = 58%]
Pressure (altimeter): 30.08 inches Hg (1018.7 mb)
[Sea-level pressure: 1018.3 mb]
Winds: from the ENE (70 degrees) at 13 MPH (11 knots; 5.7 m/s)
gusting to 18 MPH (16 knots; 8.2 m/s)
Visibility: 10 or more miles (16+ km)
Ceiling: at least 12,000 feet AGL
Clouds: few clouds at 3100 feet AGL
Weather: no significant weather observed at this time

METAR text: PHTO 222327Z 09010KT 10SM SCT028 SCT033 BKN055 26/18 A3009 RMK AO2 T02610178
Conditions at: PHTO (HILO , HI, US) observed 2327 UTC 22 March 2019
Temperature: 26.1°C (79°F)
Dewpoint: 17.8°C (64°F) [RH = 60%]
Pressure (altimeter): 30.09 inches Hg (1019.0 mb)
Winds: from the E (90 degrees) at 12 MPH (10 knots; 5.1 m/s)
Visibility: 10 or more miles (16+ km)
Ceiling: 5500 feet AGL
Clouds: scattered clouds at 2800 feet AGL
scattered clouds at 3300 feet AGL
broken clouds at 5500 feet AGL
Weather: no significant weather observed at this time

METAR text: PHTO 222314Z 08010G16KT 10SM BKN028 BKN038 BKN055 24/18 A3009 RMK AO2 T02440178
Conditions at: PHTO (HILO , HI, US) observed 2314 UTC 22 March 2019
Temperature: 24.4°C (76°F)
Dewpoint: 17.8°C (64°F) [RH = 67%]
Pressure (altimeter): 30.09 inches Hg (1019.0 mb)
Winds: from the E (80 degrees) at 12 MPH (10 knots; 5.1 m/s)
gusting to 18 MPH (16 knots; 8.2 m/s)
Visibility: 10 or more miles (16+ km)
Ceiling: 2800 feet AGL
Clouds: broken clouds at 2800 feet AGL
broken clouds at 3800 feet AGL
broken clouds at 5500 feet AGL
Weather: no significant weather observed at this time

METAR text: PHTO 222253Z 04011KT 10SM SCT028 SCT037 26/18 A3010 RMK AO2 SLP191 T02560178
Conditions at: PHTO (HILO , HI, US) observed 2253 UTC 22 March 2019
Temperature: 25.6°C (78°F)
Dewpoint: 17.8°C (64°F) [RH = 62%]
Pressure (altimeter): 30.10 inches Hg (1019.4 mb)
[Sea-level pressure: 1019.1 mb]
Winds: from the NE (40 degrees) at 13 MPH (11 knots; 5.7 m/s)
Visibility: 10 or more miles (16+ km)
Ceiling: at least 12,000 feet AGL
Clouds: scattered clouds at 2800 feet AGL
scattered clouds at 3700 feet AGL
Weather: no significant weather observed at this time

METAR text: PHTO 222233Z 05009KT 10SM SCT028 SCT035 SCT049 26/18 A3011 RMK AO2 T02560178
Conditions at: PHTO (HILO , HI, US) observed 2233 UTC 22 March 2019
Temperature: 25.6°C (78°F)
Dewpoint: 17.8°C (64°F) [RH = 62%]
Pressure (altimeter): 30.11 inches Hg (1019.7 mb)
Winds: from the NE (50 degrees) at 10 MPH (9 knots; 4.6 m/s)
Visibility: 10 or more miles (16+ km)
Ceiling: at least 12,000 feet AGL
Clouds: scattered clouds at 2800 feet AGL
scattered clouds at 3500 feet AGL
scattered clouds at 4900 feet AGL
Weather: no significant weather observed at this time

METAR text: PHTO 222219Z 04010KT 10SM BKN028 BKN035 BKN049 25/18 A3011 RMK AO2 T02500178
Conditions at: PHTO (HILO , HI, US) observed 2219 UTC 22 March 2019
Temperature: 25.0°C (77°F)
Dewpoint: 17.8°C (64°F) [RH = 64%]
Pressure (altimeter): 30.11 inches Hg (1019.7 mb)
Winds: from the NE (40 degrees) at 12 MPH (10 knots; 5.1 m/s)
Visibility: 10 or more miles (16+ km)
Ceiling: 2800 feet AGL
Clouds: broken clouds at 2800 feet AGL
broken clouds at 3500 feet AGL
broken clouds at 4900 feet AGL
Weather: no significant weather observed at this time

METAR text: PHTO 222153Z 06007KT 10SM BKN026 OVC032 24/17 A3012 RMK AO2 SLP199 T02390172
Conditions at: PHTO (HILO , HI, US) observed 2153 UTC 22 March 2019
Temperature: 23.9°C (75°F)
Dewpoint: 17.2°C (63°F) [RH = 66%]
Pressure (altimeter): 30.12 inches Hg (1020.1 mb)
[Sea-level pressure: 1019.9 mb]
Winds: from the ENE (60 degrees) at 8 MPH (7 knots; 3.6 m/s)
Visibility: 10 or more miles (16+ km)
Ceiling: 2600 feet AGL
Clouds: broken clouds at 2600 feet AGL
overcast cloud deck at 3200 feet AGL
Weather: no significant weather observed at this time

METAR text: PHTO 222141Z 00000KT 10SM BKN026 BKN031 OVC047 24/17 A3012 RMK AO2 T02390172
Conditions at: PHTO (HILO , HI, US) observed 2141 UTC 22 March 2019
Temperature: 23.9°C (75°F)
Dewpoint: 17.2°C (63°F) [RH = 66%]
Pressure (altimeter): 30.12 inches Hg (1020.1 mb)
Winds: calm
Visibility: 10 or more miles (16+ km)
Ceiling: 2600 feet AGL
Clouds: broken clouds at 2600 feet AGL
broken clouds at 3100 feet AGL
overcast cloud deck at 4700 feet AGL
Weather: no significant weather observed at this time

METAR text: PHTO 222053Z 29003KT 10SM SCT029 BKN048 OVC060 24/17 A3013 RMK AO2 SLP203 T02390167 50004
Conditions at: PHTO (HILO , HI, US) observed 2053 UTC 22 March 2019
Temperature: 23.9°C (75°F)
Dewpoint: 16.7°C (62°F) [RH = 64%]
Pressure (altimeter): 30.13 inches Hg (1020.4 mb)
[Sea-level pressure: 1020.3 mb]
Winds: from the WNW (290 degrees) at 3 MPH (3 knots; 1.5 m/s)
Visibility: 10 or more miles (16+ km)
Ceiling: 4800 feet AGL
Clouds: scattered clouds at 2900 feet AGL
broken clouds at 4800 feet AGL
overcast cloud deck at 6000 feet AGL
Weather: no significant weather observed at this time

METAR text: PHTO 222006Z 00000KT 10SM OVC031 24/17 A3014 RMK AO2 T02390167
Conditions at: PHTO (HILO , HI, US) observed 2006 UTC 22 March 2019
Temperature: 23.9°C (75°F)
Dewpoint: 16.7°C (62°F) [RH = 64%]
Pressure (altimeter): 30.14 inches Hg (1020.7 mb)
Winds: calm
Visibility: 10 or more miles (16+ km)
Ceiling: 3100 feet AGL
Clouds: overcast cloud deck at 3100 feet AGL
Weather: no significant weather observed at this time

METAR text: PHTO 221953Z 27004KT 10SM BKN028 BKN033 BKN041 24/17 A3014 RMK AO2 SLP205 T02390167
Conditions at: PHTO (HILO , HI, US) observed 1953 UTC 22 March 2019
Temperature: 23.9°C (75°F)
Dewpoint: 16.7°C (62°F) [RH = 64%]
Pressure (altimeter): 30.14 inches Hg (1020.7 mb)
[Sea-level pressure: 1020.5 mb]
Winds: from the W (270 degrees) at 5 MPH (4 knots; 2.1 m/s)
Visibility: 10 or more miles (16+ km)
Ceiling: 2800 feet AGL
Clouds: broken clouds at 2800 feet AGL
broken clouds at 3300 feet AGL
broken clouds at 4100 feet AGL
Weather: no significant weather observed at this time

METAR text: PHTO 221946Z 28006KT 10SM BKN027 BKN033 23/16 A3014 RMK AO2 T02330161
Conditions at: PHTO (HILO , HI, US) observed 1946 UTC 22 March 2019
Temperature: 23.3°C (74°F)
Dewpoint: 16.1°C (61°F) [RH = 64%]
Pressure (altimeter): 30.14 inches Hg (1020.7 mb)
Winds: from the W (280 degrees) at 7 MPH (6 knots; 3.1 m/s)
Visibility: 10 or more miles (16+ km)
Ceiling: 2700 feet AGL
Clouds: broken clouds at 2700 feet AGL
broken clouds at 3300 feet AGL
Weather: no significant weather observed at this time

METAR text: PHTO 221853Z 27009KT 10SM SCT027 SCT044 OVC070 22/17 A3014 RMK AO2 SLP204 T02170172
Conditions at: PHTO (HILO , HI, US) observed 1853 UTC 22 March 2019
Temperature: 21.7°C (71°F)
Dewpoint: 17.2°C (63°F) [RH = 76%]
Pressure (altimeter): 30.14 inches Hg (1020.7 mb)
[Sea-level pressure: 1020.4 mb]
Winds: from the W (270 degrees) at 10 MPH (9 knots; 4.6 m/s)
Visibility: 10 or more miles (16+ km)
Ceiling: 7000 feet AGL
Clouds: scattered clouds at 2700 feet AGL
scattered clouds at 4400 feet AGL
overcast cloud deck at 7000 feet AGL
Weather: no significant weather observed at this time

METAR text: PHTO 221753Z 24006KT 10SM OVC050 19/17 A3012 RMK AO2 RAB1656E17B25E35 SLP199 P0001 60005 T01940172 10194 20183 53016
Conditions at: PHTO (HILO , HI, US) observed 1753 UTC 22 March 2019
Temperature: 19.4°C (67°F)
Dewpoint: 17.2°C (63°F) [RH = 87%]
Pressure (altimeter): 30.12 inches Hg (1020.1 mb)
[Sea-level pressure: 1019.9 mb]
Winds: from the WSW (240 degrees) at 7 MPH (6 knots; 3.1 m/s)
Visibility: 10 or more miles (16+ km)
Ceiling: 5000 feet AGL
Clouds: overcast cloud deck at 5000 feet AGL
Weather: no significant weather observed at this time

METAR text: PHTO 221734Z 20003KT 6SM -RA BR SCT026 BKN032 OVC048 19/17 A3012 RMK AO2 RAB1656E17B25 P0001 T01890172
Conditions at: PHTO (HILO , HI, US) observed 1734 UTC 22 March 2019
Temperature: 18.9°C (66°F)
Dewpoint: 17.2°C (63°F) [RH = 90%]
Pressure (altimeter): 30.12 inches Hg (1020.1 mb)
Winds: from the SSW (200 degrees) at 3 MPH (3 knots; 1.5 m/s)
Visibility: 6 miles (10 km)
Ceiling: 3200 feet AGL
Clouds: scattered clouds at 2600 feet AGL
broken clouds at 3200 feet AGL
overcast cloud deck at 4800 feet AGL
Weather: -RA BR  (light rain, mist)

METAR text: PHTO 221717Z 19006KT 6SM BR BKN028 OVC034 18/16 A3011 RMK AO2 RAB1656E17 P0001 T01830161
Conditions at: PHTO (HILO , HI, US) observed 1717 UTC 22 March 2019
Temperature: 18.3°C (65°F)
Dewpoint: 16.1°C (61°F) [RH = 87%]
Pressure (altimeter): 30.11 inches Hg (1019.7 mb)
Winds: from the S (190 degrees) at 7 MPH (6 knots; 3.1 m/s)
Visibility: 6 miles (10 km)
Ceiling: 2800 feet AGL
Clouds: broken clouds at 2800 feet AGL
overcast cloud deck at 3400 feet AGL
Weather: BR  (mist)

METAR text: PHTO 221653Z 27004KT 10SM BKN032 BKN039 OVC047 19/17 A3010 RMK AO2 RAB14E25 SLP191 P0000 T01940167
Conditions at: PHTO (HILO , HI, US) observed 1653 UTC 22 March 2019
Temperature: 19.4°C (67°F)
Dewpoint: 16.7°C (62°F) [RH = 84%]
Pressure (altimeter): 30.10 inches Hg (1019.4 mb)
[Sea-level pressure: 1019.1 mb]
Winds: from the W (270 degrees) at 5 MPH (4 knots; 2.1 m/s)
Visibility: 10 or more miles (16+ km)
Ceiling: 3200 feet AGL
Clouds: broken clouds at 3200 feet AGL
broken clouds at 3900 feet AGL
overcast cloud deck at 4700 feet AGL
Weather: no significant weather observed at this time

METAR text: PHTO 221614Z 00000KT 9SM -RA SCT028 BKN035 OVC065 19/16 A3009 RMK AO2 RAB14 P0000 T01890161
Conditions at: PHTO (HILO , HI, US) observed 1614 UTC 22 March 2019
Temperature: 18.9°C (66°F)
Dewpoint: 16.1°C (61°F) [RH = 84%]
Pressure (altimeter): 30.09 inches Hg (1019.0 mb)
Winds: calm
Visibility: 9 miles (14 km)
Ceiling: 3500 feet AGL
Clouds: scattered clouds at 2800 feet AGL
broken clouds at 3500 feet AGL
overcast cloud deck at 6500 feet AGL
Weather: -RA  (light rain)

METAR text: PHTO 221553Z COR 00000KT 10SM FEW035 OVC070 18/16 A3008 RMK AO2 SLP185 T01830161 TSNO
Conditions at: PHTO (HILO , HI, US) observed 1553 UTC 22 March 2019
Temperature: 18.3°C (65°F)
Dewpoint: 16.1°C (61°F) [RH = 87%]
Pressure (altimeter): 30.08 inches Hg (1018.7 mb)
[Sea-level pressure: 1018.5 mb]
Winds: calm
Visibility: 10 or more miles (16+ km)
Ceiling: 7000 feet AGL
Clouds: few clouds at 3500 feet AGL
overcast cloud deck at 7000 feet AGL
Weather: no significant weather observed at this time

METAR text: PHTO 221510Z AUTO 23005KT 10SM FEW029 SCT037 OVC065 18/16 A3007 RMK AO2 T01830161 TSNO
Conditions at: PHTO (HILO , HI, US) observed 1510 UTC 22 March 2019
Temperature: 18.3°C (65°F)
Dewpoint: 16.1°C (61°F) [RH = 87%]
Pressure (altimeter): 30.07 inches Hg (1018.4 mb)
Winds: from the SW (230 degrees) at 6 MPH (5 knots; 2.6 m/s)
Visibility: 10 or more miles (16+ km)
Ceiling: 6500 feet AGL
Clouds: few clouds at 2900 feet AGL
scattered clouds at 3700 feet AGL
overcast cloud deck at 6500 feet AGL
Weather: automated observation with no human augmentation;
there may or may not be significant weather present at this time

METAR text: PHTO 221500Z AUTO 21003KT 10SM BKN029 BKN037 OVC065 19/16 A3008 RMK AO2 T01890161 TSNO
Conditions at: PHTO (HILO , HI, US) observed 1500 UTC 22 March 2019
Temperature: 18.9°C (66°F)
Dewpoint: 16.1°C (61°F) [RH = 84%]
Pressure (altimeter): 30.08 inches Hg (1018.7 mb)
Winds: from the SSW (210 degrees) at 3 MPH (3 knots; 1.5 m/s)
Visibility: 10 or more miles (16+ km)
Ceiling: 2900 feet AGL
Clouds: broken clouds at 2900 feet AGL
broken clouds at 3700 feet AGL
overcast cloud deck at 6500 feet AGL
Weather: automated observation with no human augmentation;
there may or may not be significant weather present at this time

METAR text: PHTO 221453Z AUTO 00000KT 10SM SCT029 BKN034 OVC049 19/16 A3008 RMK AO2 SLP183 60004 T01890161 55010 TSNO
Conditions at: PHTO (HILO , HI, US) observed 1453 UTC 22 March 2019
Temperature: 18.9°C (66°F)
Dewpoint: 16.1°C (61°F) [RH = 84%]
Pressure (altimeter): 30.08 inches Hg (1018.7 mb)
[Sea-level pressure: 1018.3 mb]
Winds: calm
Visibility: 10 or more miles (16+ km)
Ceiling: 3400 feet AGL
Clouds: scattered clouds at 2900 feet AGL
broken clouds at 3400 feet AGL
overcast cloud deck at 4900 feet AGL
Weather: automated observation with no human augmentation;
there may or may not be significant weather present at this time

METAR text: PHTO 221428Z AUTO 00000KT 10SM SCT027 BKN039 OVC070 19/16 A3008 RMK AO2 T01890156 TSNO
Conditions at: PHTO (HILO , HI, US) observed 1428 UTC 22 March 2019
Temperature: 18.9°C (66°F)
Dewpoint: 15.6°C (60°F) [RH = 81%]
Pressure (altimeter): 30.08 inches Hg (1018.7 mb)
Winds: calm
Visibility: 10 or more miles (16+ km)
Ceiling: 3900 feet AGL
Clouds: scattered clouds at 2700 feet AGL
broken clouds at 3900 feet AGL
overcast cloud deck at 7000 feet AGL
Weather: automated observation with no human augmentation;
there may or may not be significant weather present at this time

METAR text: PHTO 221418Z AUTO 26003KT 10SM BKN028 BKN035 OVC070 19/16 A3007 RMK AO2 T01890161 TSNO
Conditions at: PHTO (HILO , HI, US) observed 1418 UTC 22 March 2019
Temperature: 18.9°C (66°F)
Dewpoint: 16.1°C (61°F) [RH = 84%]
Pressure (altimeter): 30.07 inches Hg (1018.4 mb)
Winds: from the W (260 degrees) at 3 MPH (3 knots; 1.5 m/s)
Visibility: 10 or more miles (16+ km)
Ceiling: 2800 feet AGL
Clouds: broken clouds at 2800 feet AGL
broken clouds at 3500 feet AGL
overcast cloud deck at 7000 feet AGL
Weather: automated observation with no human augmentation;
there may or may not be significant weather present at this time

METAR text: PHTO 221353Z AUTO 24005KT 10SM FEW028 BKN065 18/16 A3007 RMK AO2 RAB02E22 SLP182 P0001 T01830161 TSNO
Conditions at: PHTO (HILO , HI, US) observed 1353 UTC 22 March 2019
Temperature: 18.3°C (65°F)
Dewpoint: 16.1°C (61°F) [RH = 87%]
Pressure (altimeter): 30.07 inches Hg (1018.4 mb)
[Sea-level pressure: 1018.2 mb]
Winds: from the WSW (240 degrees) at 6 MPH (5 knots; 2.6 m/s)
Visibility: 10 or more miles (16+ km)
Ceiling: 6500 feet AGL
Clouds: few clouds at 2800 feet AGL
broken clouds at 6500 feet AGL
Weather: automated observation with no human augmentation;
there may or may not be significant weather present at this time

METAR text: PHTO 221314Z AUTO 24007KT 5SM -RA SCT026 BKN045 OVC055 19/16 A3009 RMK AO2 RAB02 P0001 T01890161 TSNO
Conditions at: PHTO (HILO , HI, US) observed 1314 UTC 22 March 2019
Temperature: 18.9°C (66°F)
Dewpoint: 16.1°C (61°F) [RH = 84%]
Pressure (altimeter): 30.09 inches Hg (1019.0 mb)
Winds: from the WSW (240 degrees) at 8 MPH (7 knots; 3.6 m/s)
Visibility: 5 miles ( 8 km)
Ceiling: 4500 feet AGL
Clouds: scattered clouds at 2600 feet AGL
broken clouds at 4500 feet AGL
overcast cloud deck at 5500 feet AGL
Weather: -RA  (light rain)

METAR text: PHTO 221306Z AUTO 23006KT 5SM -RA BR BKN026 BKN032 OVC065 18/17 A3009 RMK AO2 RAB02 P0000 T01830167 TSNO
Conditions at: PHTO (HILO , HI, US) observed 1306 UTC 22 March 2019
Temperature: 18.3°C (65°F)
Dewpoint: 16.7°C (62°F) [RH = 90%]
Pressure (altimeter): 30.09 inches Hg (1019.0 mb)
Winds: from the SW (230 degrees) at 7 MPH (6 knots; 3.1 m/s)
Visibility: 5 miles ( 8 km)
Ceiling: 2600 feet AGL
Clouds: broken clouds at 2600 feet AGL
broken clouds at 3200 feet AGL
overcast cloud deck at 6500 feet AGL
Weather: -RA BR  (light rain, mist)

METAR text: PHTO 221253Z AUTO 23007KT 10SM SCT028 BKN041 OVC065 19/16 A3009 RMK AO2 RAB17E44 SLP188 P0003 T01890161 TSNO
Conditions at: PHTO (HILO , HI, US) observed 1253 UTC 22 March 2019
Temperature: 18.9°C (66°F)
Dewpoint: 16.1°C (61°F) [RH = 84%]
Pressure (altimeter): 30.09 inches Hg (1019.0 mb)
[Sea-level pressure: 1018.8 mb]
Winds: from the SW (230 degrees) at 8 MPH (7 knots; 3.6 m/s)
Visibility: 10 or more miles (16+ km)
Ceiling: 4100 feet AGL
Clouds: scattered clouds at 2800 feet AGL
broken clouds at 4100 feet AGL
overcast cloud deck at 6500 feet AGL
Weather: automated observation with no human augmentation;
there may or may not be significant weather present at this time

METAR text: PHTO 221237Z AUTO 26007KT 6SM -RA BR FEW007 BKN038 OVC050 19/17 A3009 RMK AO2 RAB17 P0003 T01890167 TSNO
Conditions at: PHTO (HILO , HI, US) observed 1237 UTC 22 March 2019
Temperature: 18.9°C (66°F)
Dewpoint: 16.7°C (62°F) [RH = 87%]
Pressure (altimeter): 30.09 inches Hg (1019.0 mb)
Winds: from the W (260 degrees) at 8 MPH (7 knots; 3.6 m/s)
Visibility: 6 miles (10 km)
Ceiling: 3800 feet AGL
Clouds: few clouds at 700 feet AGL
broken clouds at 3800 feet AGL
overcast cloud deck at 5000 feet AGL
Weather: -RA BR  (light rain, mist)

METAR text: PHTO 221227Z AUTO 26005KT 2 1/2SM RA SCT026 OVC032 19/16 A3010 RMK AO2 RAB17 P0001 T01890161 TSNO
Conditions at: PHTO (HILO , HI, US) observed 1227 UTC 22 March 2019
Temperature: 18.9°C (66°F)
Dewpoint: 16.1°C (61°F) [RH = 84%]
Pressure (altimeter): 30.10 inches Hg (1019.4 mb)
Winds: from the W (260 degrees) at 6 MPH (5 knots; 2.6 m/s)
Visibility: 2.50 miles (4.02 km)
Ceiling: 3200 feet AGL
Clouds: scattered clouds at 2600 feet AGL
overcast cloud deck at 3200 feet AGL
Weather: RA  (moderate rain)

METAR text: PHTO 221219Z AUTO 00000KT 5SM -RA BR BKN028 OVC033 19/17 A3010 RMK AO2 RAB17 P0000 T01890167 TSNO
Conditions at: PHTO (HILO , HI, US) observed 1219 UTC 22 March 2019
Temperature: 18.9°C (66°F)
Dewpoint: 16.7°C (62°F) [RH = 87%]
Pressure (altimeter): 30.10 inches Hg (1019.4 mb)
Winds: calm
Visibility: 5 miles ( 8 km)
Ceiling: 2800 feet AGL
Clouds: broken clouds at 2800 feet AGL
overcast cloud deck at 3300 feet AGL
Weather: -RA BR  (light rain, mist)

METAR text: PHTO 221153Z AUTO 26005KT 10SM FEW028 BKN050 OVC055 19/17 A3011 RMK AO2 RAB01E42 SLP193 P0003 60004 70011 T01890167 10228 20189 58017 TSNO
Conditions at: PHTO (HILO , HI, US) observed 1153 UTC 22 March 2019
Temperature: 18.9°C (66°F)
Dewpoint: 16.7°C (62°F) [RH = 87%]
Pressure (altimeter): 30.11 inches Hg (1019.7 mb)
[Sea-level pressure: 1019.3 mb]
Winds: from the W (260 degrees) at 6 MPH (5 knots; 2.6 m/s)
Visibility: 10 or more miles (16+ km)
Ceiling: 5000 feet AGL
Clouds: few clouds at 2800 feet AGL
broken clouds at 5000 feet AGL
overcast cloud deck at 5500 feet AGL
Weather: automated observation with no human augmentation;
there may or may not be significant weather present at this time

METAR text: PHTO 221124Z AUTO 27004KT 8SM -RA BKN039 OVC048 19/16 A3012 RMK AO2 RAB01 P0002 T01890161 TSNO
Conditions at: PHTO (HILO , HI, US) observed 1124 UTC 22 March 2019
Temperature: 18.9°C (66°F)
Dewpoint: 16.1°C (61°F) [RH = 84%]
Pressure (altimeter): 30.12 inches Hg (1020.1 mb)
Winds: from the W (270 degrees) at 5 MPH (4 knots; 2.1 m/s)
Visibility: 8 miles (13 km)
Ceiling: 3900 feet AGL
Clouds: broken clouds at 3900 feet AGL
overcast cloud deck at 4800 feet AGL
Weather: -RA  (light rain)

METAR text: PHTO 221115Z AUTO 23006KT 2 1/2SM -RA FEW034 BKN041 OVC050 19/16 A3012 RMK AO2 RAB01 P0002 T01890161 TSNO
Conditions at: PHTO (HILO , HI, US) observed 1115 UTC 22 March 2019
Temperature: 18.9°C (66°F)
Dewpoint: 16.1°C (61°F) [RH = 84%]
Pressure (altimeter): 30.12 inches Hg (1020.1 mb)
Winds: from the SW (230 degrees) at 7 MPH (6 knots; 3.1 m/s)
Visibility: 2.50 miles (4.02 km)
Ceiling: 4100 feet AGL
Clouds: few clouds at 3400 feet AGL
broken clouds at 4100 feet AGL
overcast cloud deck at 5000 feet AGL
Weather: -RA  (light rain)

METAR text: PHTO 221053Z AUTO 20003KT 10SM SCT039 BKN050 OVC065 19/16 A3013 RMK AO2 SLP201 T01940161 TSNO
Conditions at: PHTO (HILO , HI, US) observed 1053 UTC 22 March 2019
Temperature: 19.4°C (67°F)
Dewpoint: 16.1°C (61°F) [RH = 81%]
Pressure (altimeter): 30.13 inches Hg (1020.4 mb)
[Sea-level pressure: 1020.1 mb]
Winds: from the SSW (200 degrees) at 3 MPH (3 knots; 1.5 m/s)
Visibility: 10 or more miles (16+ km)
Ceiling: 5000 feet AGL
Clouds: scattered clouds at 3900 feet AGL
broken clouds at 5000 feet AGL
overcast cloud deck at 6500 feet AGL
Weather: automated observation with no human augmentation;
there may or may not be significant weather present at this time

METAR text: PHTO 220953Z AUTO 25005KT 10SM SCT031 BKN070 19/17 A3014 RMK AO2 RAE00 SLP206 P0001 T01940167 402610178 TSNO
Conditions at: PHTO (HILO , HI, US) observed 0953 UTC 22 March 2019
Temperature: 19.4°C (67°F)
Dewpoint: 16.7°C (62°F) [RH = 84%]
Pressure (altimeter): 30.14 inches Hg (1020.7 mb)
[Sea-level pressure: 1020.6 mb]
Winds: from the WSW (250 degrees) at 6 MPH (5 knots; 2.6 m/s)
Visibility: 10 or more miles (16+ km)
Ceiling: 7000 feet AGL
Clouds: scattered clouds at 3100 feet AGL
broken clouds at 7000 feet AGL
Weather: automated observation with no human augmentation;
there may or may not be significant weather present at this time

METAR text: PHTO 220853Z AUTO 23004KT 9SM -RA FEW028 SCT045 BKN060 20/17 A3016 RMK AO2 RAB50 SLP210 P0000 60000 T02000167 51014 TSNO
Conditions at: PHTO (HILO , HI, US) observed 0853 UTC 22 March 2019
Temperature: 20.0°C (68°F)
Dewpoint: 16.7°C (62°F) [RH = 81%]
Pressure (altimeter): 30.16 inches Hg (1021.4 mb)
[Sea-level pressure: 1021.0 mb]
Winds: from the SW (230 degrees) at 5 MPH (4 knots; 2.1 m/s)
Visibility: 9 miles (14 km)
Ceiling: 6000 feet AGL
Clouds: few clouds at 2800 feet AGL
scattered clouds at 4500 feet AGL
broken clouds at 6000 feet AGL
Weather: -RA  (light rain)

METAR text: PHTO 220753Z AUTO 25005KT 10SM BKN030 BKN041 BKN060 21/17 A3015 RMK AO2 SLP208 T02060172 TSNO
Conditions at: PHTO (HILO , HI, US) observed 0753 UTC 22 March 2019
Temperature: 20.6°C (69°F)
Dewpoint: 17.2°C (63°F) [RH = 81%]
Pressure (altimeter): 30.15 inches Hg (1021.1 mb)
[Sea-level pressure: 1020.8 mb]
Winds: from the WSW (250 degrees) at 6 MPH (5 knots; 2.6 m/s)
Visibility: 10 or more miles (16+ km)
Ceiling: 3000 feet AGL
Clouds: broken clouds at 3000 feet AGL
broken clouds at 4100 feet AGL
broken clouds at 6000 feet AGL
Weather: automated observation with no human augmentation;
there may or may not be significant weather present at this time

METAR text: PHTO 220701Z 24004KT 10SM SCT030 OVC060 21/17 A3014 RMK AO2 T02060172
Conditions at: PHTO (HILO , HI, US) observed 0701 UTC 22 March 2019
Temperature: 20.6°C (69°F)
Dewpoint: 17.2°C (63°F) [RH = 81%]
Pressure (altimeter): 30.14 inches Hg (1020.7 mb)
Winds: from the WSW (240 degrees) at 5 MPH (4 knots; 2.1 m/s)
Visibility: 10 or more miles (16+ km)
Ceiling: 6000 feet AGL
Clouds: scattered clouds at 3000 feet AGL
overcast cloud deck at 6000 feet AGL
Weather: no significant weather observed at this time

METAR text: PHTO 220653Z 25006KT 10SM BKN029 OVC055 21/17 A3013 RMK AO2 RAB24E36 SLP203 P0000 T02060172
Conditions at: PHTO (HILO , HI, US) observed 0653 UTC 22 March 2019
Temperature: 20.6°C (69°F)
Dewpoint: 17.2°C (63°F) [RH = 81%]
Pressure (altimeter): 30.13 inches Hg (1020.4 mb)
[Sea-level pressure: 1020.3 mb]
Winds: from the WSW (250 degrees) at 7 MPH (6 knots; 3.1 m/s)
Visibility: 10 or more miles (16+ km)
Ceiling: 2900 feet AGL
Clouds: broken clouds at 2900 feet AGL
overcast cloud deck at 5500 feet AGL
Weather: no significant weather observed at this time

METAR text: PHTO 220625Z 27005KT 10SM -RA BKN028 BKN048 22/16 A3013 RMK AO2 RAB24 P0000 T02170161
Conditions at: PHTO (HILO , HI, US) observed 0625 UTC 22 March 2019
Temperature: 21.7°C (71°F)
Dewpoint: 16.1°C (61°F) [RH = 70%]
Pressure (altimeter): 30.13 inches Hg (1020.4 mb)
Winds: from the W (270 degrees) at 6 MPH (5 knots; 2.6 m/s)
Visibility: 10 or more miles (16+ km)
Ceiling: 2800 feet AGL
Clouds: broken clouds at 2800 feet AGL
broken clouds at 4800 feet AGL
Weather: -RA  (light rain)

METAR text: PHTO 220553Z 00000KT 10SM SCT033 BKN060 23/16 A3012 RMK AO2 SLP196 T02280161 10239 20222 53016
Conditions at: PHTO (HILO , HI, US) observed 0553 UTC 22 March 2019
Temperature: 22.8°C (73°F)
Dewpoint: 16.1°C (61°F) [RH = 66%]
Pressure (altimeter): 30.12 inches Hg (1020.1 mb)
[Sea-level pressure: 1019.6 mb]
Winds: calm
Visibility: 10 or more miles (16+ km)
Ceiling: 6000 feet AGL
Clouds: scattered clouds at 3300 feet AGL
broken clouds at 6000 feet AGL
Weather: no significant weather observed at this time

METAR text: PHTO 220453Z 02004KT 10SM SCT030 SCT039 23/17 A3009 RMK AO2 SLP188 T02280167
Conditions at: PHTO (HILO , HI, US) observed 0453 UTC 22 March 2019
Temperature: 22.8°C (73°F)
Dewpoint: 16.7°C (62°F) [RH = 68%]
Pressure (altimeter): 30.09 inches Hg (1019.0 mb)
[Sea-level pressure: 1018.8 mb]
Winds: from the NNE (20 degrees) at 5 MPH (4 knots; 2.1 m/s)
Visibility: 10 or more miles (16+ km)
Ceiling: at least 12,000 feet AGL
Clouds: scattered clouds at 3000 feet AGL
scattered clouds at 3900 feet AGL
Weather: no significant weather observed at this time

METAR text: PHTO 220353Z 05004KT 10SM FEW029 FEW042 23/17 A3008 RMK AO2 SLP183 T02280167
Conditions at: PHTO (HILO , HI, US) observed 0353 UTC 22 March 2019
Temperature: 22.8°C (73°F)
Dewpoint: 16.7°C (62°F) [RH = 68%]
Pressure (altimeter): 30.08 inches Hg (1018.7 mb)
[Sea-level pressure: 1018.3 mb]
Winds: from the NE (50 degrees) at 5 MPH (4 knots; 2.1 m/s)
Visibility: 10 or more miles (16+ km)
Ceiling: at least 12,000 feet AGL
Clouds: few clouds at 2900 feet AGL
few clouds at 4200 feet AGL
Weather: no significant weather observed at this time

METAR text: PHTO 220253Z 04007KT 10SM SCT030 24/17 A3007 RMK AO2 SLP180 T02390167 55002
Conditions at: PHTO (HILO , HI, US) observed 0253 UTC 22 March 2019
Temperature: 23.9°C (75°F)
Dewpoint: 16.7°C (62°F) [RH = 64%]
Pressure (altimeter): 30.07 inches Hg (1018.4 mb)
[Sea-level pressure: 1018.0 mb]
Winds: from the NE (40 degrees) at 8 MPH (7 knots; 3.6 m/s)
Visibility: 10 or more miles (16+ km)
Ceiling: at least 12,000 feet AGL
Clouds: scattered clouds at 3000 feet AGL
Weather: no significant weather observed at this time

METAR text: PHTO 220153Z 31007KT 10SM FEW030 SCT043 BKN055 24/18 A3006 RMK AO2 SLP178 T02390178
Conditions at: PHTO (HILO , HI, US) observed 0153 UTC 22 March 2019
Temperature: 23.9°C (75°F)
Dewpoint: 17.8°C (64°F) [RH = 69%]
Pressure (altimeter): 30.06 inches Hg (1018.0 mb)
[Sea-level pressure: 1017.8 mb]
Winds: from the NW (310 degrees) at 8 MPH (7 knots; 3.6 m/s)
Visibility: 10 or more miles (16+ km)
Ceiling: 5500 feet AGL
Clouds: few clouds at 3000 feet AGL
scattered clouds at 4300 feet AGL
broken clouds at 5500 feet AGL
Weather: no significant weather observed at this time

METAR text: PHTO 220053Z 32008KT 10SM OVC055 23/18 A3006 RMK AO2 SLP177 T02280178
Conditions at: PHTO (HILO , HI, US) observed 0053 UTC 22 March 2019
Temperature: 22.8°C (73°F)
Dewpoint: 17.8°C (64°F) [RH = 73%]
Pressure (altimeter): 30.06 inches Hg (1018.0 mb)
[Sea-level pressure: 1017.7 mb]
Winds: from the NW (320 degrees) at 9 MPH (8 knots; 4.1 m/s)
Visibility: 10 or more miles (16+ km)
Ceiling: 5500 feet AGL
Clouds: overcast cloud deck at 5500 feet AGL
Weather: no significant weather observed at this time

METAR text: PHTO 212353Z 00000KT 10SM OVC037 23/18 A3007 RMK AO2 RAB17E38 SLP182 P0002 60002 T02280183 10261 20200 56016
Conditions at: PHTO (HILO , HI, US) observed 2353 UTC 21 March 2019
Temperature: 22.8°C (73°F)
Dewpoint: 18.3°C (65°F) [RH = 76%]
Pressure (altimeter): 30.07 inches Hg (1018.4 mb)
[Sea-level pressure: 1018.2 mb]
Winds: calm
Visibility: 10 or more miles (16+ km)
Ceiling: 3700 feet AGL
Clouds: overcast cloud deck at 3700 feet AGL
Weather: no significant weather observed at this time

METAR text: PHTO 212253Z 01010KT 10SM OVC065 26/16 A3008 RMK AO2 SLP186 T02560156
Conditions at: PHTO (HILO , HI, US) observed 2253 UTC 21 March 2019
Temperature: 25.6°C (78°F)
Dewpoint: 15.6°C (60°F) [RH = 54%]
Pressure (altimeter): 30.08 inches Hg (1018.7 mb)
[Sea-level pressure: 1018.6 mb]
Winds: from the N (10 degrees) at 12 MPH (10 knots; 5.1 m/s)
Visibility: 10 or more miles (16+ km)
Ceiling: 6500 feet AGL
Clouds: overcast cloud deck at 6500 feet AGL
Weather: no significant weather observed at this time

METAR text: PHTO 212153Z 03008KT 10SM OVC060 26/16 A3011 RMK AO2 SLP194 T02560156
Conditions at: PHTO (HILO , HI, US) observed 2153 UTC 21 March 2019
Temperature: 25.6°C (78°F)
Dewpoint: 15.6°C (60°F) [RH = 54%]
Pressure (altimeter): 30.11 inches Hg (1019.7 mb)
[Sea-level pressure: 1019.4 mb]
Winds: from the NNE (30 degrees) at 9 MPH (8 knots; 4.1 m/s)
Visibility: 10 or more miles (16+ km)
Ceiling: 6000 feet AGL
Clouds: overcast cloud deck at 6000 feet AGL
Weather: no significant weather observed at this time

METAR text: PHTO 212053Z 35010KT 10SM SCT040 25/17 A3012 RMK AO2 SLP198 T02500172 50004
Conditions at: PHTO (HILO , HI, US) observed 2053 UTC 21 March 2019
Temperature: 25.0°C (77°F)
Dewpoint: 17.2°C (63°F) [RH = 62%]
Pressure (altimeter): 30.12 inches Hg (1020.1 mb)
[Sea-level pressure: 1019.8 mb]
Winds: from the N (350 degrees) at 12 MPH (10 knots; 5.1 m/s)
Visibility: 10 or more miles (16+ km)
Ceiling: at least 12,000 feet AGL
Clouds: scattered clouds at 4000 feet AGL
Weather: no significant weather observed at this time

METAR text: PHTO 211953Z AUTO 35007KT 10SM FEW060 24/17 A3013 RMK AO2 SLP200 T02390167 TSNO
Conditions at: PHTO (HILO , HI, US) observed 1953 UTC 21 March 2019
Temperature: 23.9°C (75°F)
Dewpoint: 16.7°C (62°F) [RH = 64%]
Pressure (altimeter): 30.13 inches Hg (1020.4 mb)
[Sea-level pressure: 1020.0 mb]
Winds: from the N (350 degrees) at 8 MPH (7 knots; 3.6 m/s)
Visibility: 10 or more miles (16+ km)
Ceiling: at least 12,000 feet AGL
Clouds: few clouds at 6000 feet AGL
Weather: automated observation with no human augmentation;
there may or may not be significant weather present at this time

METAR text: PHTO 211853Z 03003KT 10SM OVC045 23/17 A3013 RMK AO2 SLP200 T02280167
Conditions at: PHTO (HILO , HI, US) observed 1853 UTC 21 March 2019
Temperature: 22.8°C (73°F)
Dewpoint: 16.7°C (62°F) [RH = 68%]
Pressure (altimeter): 30.13 inches Hg (1020.4 mb)
[Sea-level pressure: 1020.0 mb]
Winds: from the NNE (30 degrees) at 3 MPH (3 knots; 1.5 m/s)
Visibility: 10 or more miles (16+ km)
Ceiling: 4500 feet AGL
Clouds: overcast cloud deck at 4500 feet AGL
Weather: no significant weather observed at this time

METAR text: PHTO 211753Z 26008KT 10SM OVC070 20/17 A3011 RMK AO2 RAB1658E07 SLP194 P0000 60005 T02000167 10200 20178 51018
Conditions at: PHTO (HILO , HI, US) observed 1753 UTC 21 March 2019
Temperature: 20.0°C (68°F)
Dewpoint: 16.7°C (62°F) [RH = 81%]
Pressure (altimeter): 30.11 inches Hg (1019.7 mb)
[Sea-level pressure: 1019.4 mb]
Winds: from the W (260 degrees) at 9 MPH (8 knots; 4.1 m/s)
Visibility: 10 or more miles (16+ km)
Ceiling: 7000 feet AGL
Clouds: overcast cloud deck at 7000 feet AGL
Weather: no significant weather observed at this time

METAR text: PHTO 211653Z 27010KT 7SM FEW023 BKN042 OVC050 18/17 A3009 RMK AO2 RAE46 SLP189 P0004 T01830167
Conditions at: PHTO (HILO , HI, US) observed 1653 UTC 21 March 2019
Temperature: 18.3°C (65°F)
Dewpoint: 16.7°C (62°F) [RH = 90%]
Pressure (altimeter): 30.09 inches Hg (1019.0 mb)
[Sea-level pressure: 1018.9 mb]
Winds: from the W (270 degrees) at 12 MPH (10 knots; 5.1 m/s)
Visibility: 7 miles (11 km)
Ceiling: 4200 feet AGL
Clouds: few clouds at 2300 feet AGL
broken clouds at 4200 feet AGL
overcast cloud deck at 5000 feet AGL
Weather: no significant weather observed at this time

METAR text: PHTO 211637Z 26008KT 4SM -RA BR FEW023 BKN038 OVC045 18/17 A3009 RMK AO2 P0004 T01830167
Conditions at: PHTO (HILO , HI, US) observed 1637 UTC 21 March 2019
Temperature: 18.3°C (65°F)
Dewpoint: 16.7°C (62°F) [RH = 90%]
Pressure (altimeter): 30.09 inches Hg (1019.0 mb)
Winds: from the W (260 degrees) at 9 MPH (8 knots; 4.1 m/s)
Visibility: 4 miles ( 6 km)
Ceiling: 3800 feet AGL
Clouds: few clouds at 2300 feet AGL
broken clouds at 3800 feet AGL
overcast cloud deck at 4500 feet AGL
Weather: -RA BR  (light rain, mist)

METAR text: PHTO 211620Z 29004KT 2 1/2SM RA BR BKN026 BKN034 OVC041 19/17 A3009 RMK AO2 P0000 T01890167
Conditions at: PHTO (HILO , HI, US) observed 1620 UTC 21 March 2019
Temperature: 18.9°C (66°F)
Dewpoint: 16.7°C (62°F) [RH = 87%]
Pressure (altimeter): 30.09 inches Hg (1019.0 mb)
Winds: from the WNW (290 degrees) at 5 MPH (4 knots; 2.1 m/s)
Visibility: 2.50 miles (4.02 km)
Ceiling: 2600 feet AGL
Clouds: broken clouds at 2600 feet AGL
broken clouds at 3400 feet AGL
overcast cloud deck at 4100 feet AGL
Weather: RA BR  (moderate rain, mist)

METAR text: PHTO 211553Z 22007KT 5SM -RA BR BKN039 OVC046 19/17 A3007 RMK AO2 RAB31 SLP182 P0001 T01890167
Conditions at: PHTO (HILO , HI, US) observed 1553 UTC 21 March 2019
Temperature: 18.9°C (66°F)
Dewpoint: 16.7°C (62°F) [RH = 87%]
Pressure (altimeter): 30.07 inches Hg (1018.4 mb)
[Sea-level pressure: 1018.2 mb]
Winds: from the SW (220 degrees) at 8 MPH (7 knots; 3.6 m/s)
Visibility: 5 miles ( 8 km)
Ceiling: 3900 feet AGL
Clouds: broken clouds at 3900 feet AGL
overcast cloud deck at 4600 feet AGL
Weather: -RA BR  (light rain, mist)

METAR text: PHTO 211453Z AUTO 19006KT 10SM FEW031 OVC047 19/16 A3006 RMK AO2 SLP176 60000 T01890156 53004 TSNO
Conditions at: PHTO (HILO , HI, US) observed 1453 UTC 21 March 2019
Temperature: 18.9°C (66°F)
Dewpoint: 15.6°C (60°F) [RH = 81%]
Pressure (altimeter): 30.06 inches Hg (1018.0 mb)
[Sea-level pressure: 1017.6 mb]
Winds: from the S (190 degrees) at 7 MPH (6 knots; 3.1 m/s)
Visibility: 10 or more miles (16+ km)
Ceiling: 4700 feet AGL
Clouds: few clouds at 3100 feet AGL
overcast cloud deck at 4700 feet AGL
Weather: automated observation with no human augmentation;
there may or may not be significant weather present at this time

METAR text: PHTO 211353Z AUTO 24006KT 10SM SCT038 OVC050 18/14 A3004 RMK AO2 RAE05 SLP171 P0000 T01830144 TSNO
Conditions at: PHTO (HILO , HI, US) observed 1353 UTC 21 March 2019
Temperature: 18.3°C (65°F)
Dewpoint: 14.4°C (58°F) [RH = 78%]
Pressure (altimeter): 30.04 inches Hg (1017.4 mb)
[Sea-level pressure: 1017.1 mb]
Winds: from the WSW (240 degrees) at 7 MPH (6 knots; 3.1 m/s)
Visibility: 10 or more miles (16+ km)
Ceiling: 5000 feet AGL
Clouds: scattered clouds at 3800 feet AGL
overcast cloud deck at 5000 feet AGL
Weather: automated observation with no human augmentation;
there may or may not be significant weather present at this time

METAR text: PHTO 211253Z AUTO 27007KT 9SM -RA BKN030 OVC049 19/13 A3004 RMK AO2 RAB52 SLP171 P0000 T01940133 TSNO
Conditions at: PHTO (HILO , HI, US) observed 1253 UTC 21 March 2019
Temperature: 19.4°C (67°F)
Dewpoint: 13.3°C (56°F) [RH = 68%]
Pressure (altimeter): 30.04 inches Hg (1017.4 mb)
[Sea-level pressure: 1017.1 mb]
Winds: from the W (270 degrees) at 8 MPH (7 knots; 3.6 m/s)
Visibility: 9 miles (14 km)
Ceiling: 3000 feet AGL
Clouds: broken clouds at 3000 feet AGL
overcast cloud deck at 4900 feet AGL
Weather: -RA  (light rain)

Forecast for: PHTO (HILO , HI, US)
Text: PHTO 222347Z 2300/2324 09011KT P6SM SCT025 BKN050
Forecast period: 0000 to 0500 UTC 23 March 2019
Forecast type: FROM: standard forecast or significant change
Winds: from the E (90 degrees) at 13 MPH (11 knots; 5.7 m/s)
Visibility: 6 or more miles 10+ km)
Ceiling: 5000 feet AGL
Clouds: scattered clouds at 2500 feet AGL
broken clouds at 5000 feet AGL
Weather: no significant weather forecast for this period
Text: FM230500 24005KT P6SM VCSH SCT025 BKN040
Forecast period: 0500 to 2000 UTC 23 March 2019
Forecast type: FROM: standard forecast or significant change
Winds: from the WSW (240 degrees) at 6 MPH (5 knots; 2.6 m/s)
Visibility: 6 or more miles 10+ km)
Ceiling: 4000 feet AGL
Clouds: scattered clouds at 2500 feet AGL
broken clouds at 4000 feet AGL
Weather: VCSH  (showers in vicinity)
Text: FM232000 08010KT P6SM SCT025 BKN050
Forecast period: 2000 UTC 23 March 2019 to 0000 UTC 24 March 2019
Forecast type: FROM: standard forecast or significant change
Winds: from the E (80 degrees) at 12 MPH (10 knots; 5.1 m/s)
Visibility: 6 or more miles 10+ km)
Ceiling: 5000 feet AGL
Clouds: scattered clouds at 2500 feet AGL
broken clouds at 5000 feet AGL
Weather: no significant weather forecast for this period